createdAt,value
2023-02-20T00:02:18.215Z,1.31
2023-02-20T00:04:48.303Z,1.20
2023-02-20T00:07:16.576Z,1.25
2023-02-20T00:09:44.815Z,1.26
2023-02-20T00:12:14.275Z,1.31
2023-02-20T00:14:42.454Z,1.31
2023-02-20T00:17:10.591Z,1.20
2023-02-20T00:19:38.738Z,1.04
2023-02-20T00:22:07.042Z,1.16
2023-02-20T00:24:35.394Z,1.04
2023-02-20T00:27:03.560Z,1.04
2023-02-20T00:29:34.712Z,1.08
2023-02-20T00:32:03.234Z,1.09
2023-02-20T00:34:33.613Z,1.04
2023-02-20T00:37:01.784Z,1.00
2023-02-20T00:39:30.159Z,1.00
2023-02-20T00:41:59.095Z,0.93
2023-02-20T00:44:27.496Z,0.96
2023-02-20T00:46:56.981Z,0.88
2023-02-20T00:49:25.120Z,0.83
2023-02-20T00:51:53.803Z,1.02
2023-02-20T00:54:22.060Z,0.90
2023-02-20T00:56:50.224Z,1.03
2023-02-20T00:59:18.451Z,0.83
2023-02-20T01:01:46.716Z,1.06
2023-02-20T01:04:16.586Z,1.04
2023-02-20T01:06:44.900Z,0.98
2023-02-20T01:09:13.557Z,1.01
2023-02-20T01:11:43.635Z,0.90
2023-02-20T01:14:12.525Z,0.84
2023-02-20T01:16:45.567Z,0.99
2023-02-20T01:19:14.408Z,0.74
2023-02-20T01:21:44.074Z,0.95
2023-02-20T01:24:13.366Z,0.85
2023-02-20T01:26:42.069Z,0.85
2023-02-20T01:29:10.289Z,0.99
2023-02-20T01:31:38.561Z,0.89
2023-02-20T01:34:10.402Z,0.97
2023-02-20T01:36:38.656Z,1.07
2023-02-20T01:39:08.117Z,1.03
2023-02-20T01:41:36.372Z,1.21
2023-02-20T01:44:04.528Z,1.33
2023-02-20T01:46:49.276Z,1.19
2023-02-20T01:49:22.550Z,1.31
2023-02-20T01:51:54.976Z,1.32
2023-02-20T01:54:27.179Z,1.27
2023-02-20T01:56:58.265Z,1.12
2023-02-20T01:59:29.489Z,1.30
2023-02-20T02:01:57.872Z,1.21
2023-02-20T02:04:26.926Z,1.34
2023-02-20T02:06:56.253Z,1.37
2023-02-20T02:09:42.808Z,1.41
2023-02-20T02:12:11.414Z,1.42
2023-02-20T02:14:39.593Z,1.55
2023-02-20T02:17:26.797Z,1.51
2023-02-20T02:20:26.556Z,1.51
2023-02-20T02:23:50.400Z,1.57
2023-02-20T02:26:42.556Z,1.57
2023-02-20T02:29:43.181Z,1.62
2023-02-20T02:32:27.814Z,1.62
2023-02-20T02:35:19.059Z,1.62
2023-02-20T02:37:53.648Z,1.80
2023-02-20T02:40:28.908Z,1.67
2023-02-20T02:43:08.741Z,1.70
2023-02-20T02:45:41.727Z,1.83
2023-02-20T02:48:15.399Z,1.83
2023-02-20T02:50:48.017Z,1.92
2023-02-20T02:53:17.842Z,1.87
2023-02-20T02:55:46.073Z,2.03
2023-02-20T02:58:16.409Z,2.06
2023-02-20T03:00:50.568Z,2.12
2023-02-20T03:03:23.094Z,2.09
2023-02-20T03:05:56.440Z,2.09
2023-02-20T03:08:32.020Z,2.19
2023-02-20T03:11:04.708Z,2.10
2023-02-20T03:13:54.338Z,2.18
2023-02-20T03:16:30.798Z,2.26
2023-02-20T03:19:02.660Z,2.39
2023-02-20T03:21:33.618Z,2.46
2023-02-20T03:24:05.315Z,2.50
2023-02-20T03:26:38.413Z,2.52
2023-02-20T03:29:13.679Z,2.48
2023-02-20T03:31:47.210Z,2.53
2023-02-20T03:34:36.949Z,2.56
2023-02-20T03:37:27.951Z,2.64
2023-02-20T03:40:19.747Z,2.61
2023-02-20T03:43:12.511Z,2.74
2023-02-20T03:45:43.824Z,2.82
2023-02-20T03:48:17.685Z,2.83
2023-02-20T03:50:45.935Z,2.83
2023-02-20T03:53:15.106Z,2.90
2023-02-20T03:55:47.034Z,2.82
2023-02-20T03:58:23.590Z,2.84
2023-02-20T04:00:56.899Z,2.94
2023-02-20T04:03:30.599Z,2.95
2023-02-20T04:06:01.793Z,3.00
2023-02-20T04:08:39.516Z,3.03
2023-02-20T04:11:12.234Z,3.01
2023-02-20T04:13:41.968Z,3.04
2023-02-20T04:16:11.245Z,3.02
2023-02-20T04:18:39.999Z,3.05
2023-02-20T04:21:17.231Z,3.02
2023-02-20T04:23:48.476Z,3.18
2023-02-20T04:26:20.991Z,3.18
2023-02-20T04:28:53.186Z,3.29
2023-02-20T04:31:22.515Z,3.19
2023-02-20T04:33:51.733Z,3.24
2023-02-20T04:36:24.931Z,3.29
2023-02-20T04:38:54.279Z,3.17
2023-02-20T04:41:28.097Z,3.28
2023-02-20T04:44:16.296Z,3.34
2023-02-20T04:46:46.212Z,3.26
2023-02-20T04:49:15.652Z,3.39
2023-02-20T04:51:48.552Z,3.28
2023-02-20T04:54:17.306Z,3.42
2023-02-20T04:56:47.200Z,3.37
2023-02-20T04:59:16.576Z,3.40
2023-02-20T05:01:48.119Z,3.43
2023-02-20T05:04:17.291Z,3.42
2023-02-20T05:06:47.345Z,3.32
2023-02-20T05:09:15.977Z,3.46
2023-02-20T05:11:44.703Z,3.53
2023-02-20T05:14:14.827Z,3.42
2023-02-20T05:16:45.514Z,3.47
2023-02-20T05:19:14.561Z,3.43
2023-02-20T05:22:01.374Z,3.45
2023-02-20T05:24:29.812Z,3.41
2023-02-20T05:26:58.755Z,3.54
2023-02-20T05:29:28.800Z,3.61
2023-02-20T05:31:57.020Z,3.58
2023-02-20T05:34:25.875Z,3.61
2023-02-20T05:36:57.189Z,3.65
2023-02-20T05:39:25.328Z,3.65
2023-02-20T05:41:53.496Z,3.73
2023-02-20T05:44:21.715Z,3.81
2023-02-20T05:46:51.204Z,3.63
2023-02-20T05:49:19.373Z,3.75
2023-02-20T05:51:49.936Z,3.73
2023-02-20T05:54:18.279Z,3.78
2023-02-20T05:56:47.339Z,3.73
2023-02-20T05:59:19.550Z,3.67
2023-02-20T06:01:47.895Z,3.72
2023-02-20T06:04:17.601Z,3.77
2023-02-20T06:06:46.039Z,3.78
2023-02-20T06:09:16.880Z,3.74
2023-02-20T06:11:50.836Z,3.78
2023-02-20T06:14:20.860Z,3.87
2023-02-20T06:16:49.522Z,3.94
2023-02-20T06:19:23.085Z,3.91
2023-02-20T06:21:53.534Z,3.94
2023-02-20T06:24:22.474Z,3.88
2023-02-20T06:26:50.840Z,3.92
2023-02-20T06:29:20.150Z,3.91
2023-02-20T06:31:48.729Z,3.89
2023-02-20T06:34:17.820Z,3.89
2023-02-20T06:36:47.317Z,4.04
2023-02-20T06:39:16.002Z,4.01
2023-02-20T06:41:44.509Z,4.03
2023-02-20T06:44:12.639Z,4.06
2023-02-20T06:46:40.814Z,4.05
2023-02-20T06:49:08.984Z,4.09
2023-02-20T06:51:37.372Z,4.09
2023-02-20T06:54:08.041Z,4.12
2023-02-20T06:56:37.203Z,4.15
2023-02-20T06:59:09.081Z,4.12
2023-02-20T07:01:42.284Z,4.13
2023-02-20T07:04:17.707Z,4.16
2023-02-20T07:06:45.861Z,4.24
2023-02-20T07:09:16.490Z,4.21
2023-02-20T07:11:45.165Z,4.17
2023-02-20T07:14:14.546Z,4.18
2023-02-20T07:16:42.852Z,4.22
2023-02-20T07:19:11.032Z,4.17
2023-02-20T07:21:39.905Z,4.27
2023-02-20T07:24:08.928Z,4.40
2023-02-20T07:26:39.544Z,4.28
2023-02-20T07:29:08.381Z,4.28
2023-02-20T07:31:36.809Z,4.36
2023-02-20T07:34:04.976Z,4.37
2023-02-20T07:36:38.117Z,4.42
2023-02-20T07:39:07.578Z,4.38
2023-02-20T07:41:36.042Z,4.44
2023-02-20T07:44:08.208Z,4.53
2023-02-20T07:46:36.397Z,4.49
2023-02-20T07:49:06.238Z,4.61
2023-02-20T07:51:34.500Z,4.69
2023-02-20T07:54:02.721Z,4.66
2023-02-20T07:56:31.329Z,4.69
2023-02-20T07:59:00.935Z,4.75
2023-02-20T08:01:30.678Z,4.76
2023-02-20T08:03:58.947Z,4.68
2023-02-20T08:06:28.878Z,4.61
2023-02-20T08:08:57.162Z,4.75
2023-02-20T08:11:25.653Z,4.78
2023-02-20T08:13:55.611Z,4.66
2023-02-20T08:16:24.666Z,4.80
2023-02-20T08:18:54.284Z,4.89
2023-02-20T08:21:22.956Z,5.06
2023-02-20T08:23:52.516Z,5.07
2023-02-20T08:26:20.689Z,5.15
2023-02-20T08:28:49.434Z,5.16
2023-02-20T08:31:31.095Z,5.19
2023-02-20T08:34:01.133Z,5.28
2023-02-20T08:36:29.366Z,5.30
2023-02-20T08:38:57.984Z,5.40
2023-02-20T08:41:26.125Z,5.45
2023-02-20T08:43:54.330Z,5.49
2023-02-20T08:46:27.256Z,5.57
2023-02-20T08:48:55.683Z,5.59
2023-02-20T08:51:26.462Z,5.58
2023-02-20T08:53:54.608Z,5.57
2023-02-20T08:56:22.892Z,5.78
2023-02-20T08:58:51.057Z,5.79
2023-02-20T09:01:19.241Z,5.89
2023-02-20T09:03:49.224Z,5.95
2023-02-20T09:06:17.806Z,6.01
2023-02-20T09:08:47.277Z,6.01
2023-02-20T09:11:15.980Z,6.05
2023-02-20T09:13:44.947Z,6.23
2023-02-20T09:16:14.225Z,6.33
2023-02-20T09:18:42.761Z,6.34
2023-02-20T09:21:12.097Z,6.45
2023-02-20T09:23:40.751Z,6.60
2023-02-20T09:26:10.460Z,6.69
2023-02-20T09:28:38.832Z,6.79
2023-02-20T09:31:07.248Z,6.79
2023-02-20T09:33:35.405Z,6.82
2023-02-20T09:36:03.572Z,6.94
2023-02-20T09:38:31.710Z,7.07
2023-02-20T09:41:02.105Z,7.08
2023-02-20T09:43:40.794Z,7.17
2023-02-20T09:46:14.785Z,7.26
2023-02-20T09:49:07.173Z,7.38
2023-02-20T09:51:38.951Z,7.47
2023-02-20T09:54:11.724Z,7.52
2023-02-20T09:56:43.035Z,7.59
2023-02-20T09:59:16.521Z,7.67
2023-02-20T10:01:54.532Z,7.76
2023-02-20T10:04:24.972Z,7.86
2023-02-20T10:06:56.115Z,7.91
2023-02-20T10:09:24.284Z,8.03
2023-02-20T10:12:06.480Z,8.05
2023-02-20T10:14:53.943Z,8.05
2023-02-20T10:17:31.781Z,8.06
2023-02-20T10:20:10.803Z,8.09
2023-02-20T10:22:50.098Z,8.05
2023-02-20T10:25:25.237Z,7.95
2023-02-20T10:27:55.740Z,8.15
2023-02-20T10:30:30.854Z,8.34
2023-02-20T10:33:05.630Z,8.36
2023-02-20T10:35:39.603Z,8.37
2023-02-20T10:38:12.235Z,8.55
2023-02-20T10:40:46.517Z,8.74
2023-02-20T10:43:20.405Z,8.75
2023-02-20T10:45:57.008Z,8.66
2023-02-20T10:48:30.033Z,8.82
2023-02-20T10:51:06.161Z,8.85
2023-02-20T10:53:40.452Z,8.80
2023-02-20T10:56:13.974Z,8.77
2023-02-20T10:58:47.597Z,8.81
2023-02-20T11:01:22.061Z,8.71
2023-02-20T11:03:58.080Z,8.79
2023-02-20T11:06:32.300Z,8.75
2023-02-20T11:09:00.588Z,8.72
2023-02-20T11:11:34.972Z,8.73
2023-02-20T11:14:12.760Z,8.72
2023-02-20T11:16:48.517Z,8.87
2023-02-20T11:19:22.300Z,8.94
2023-02-20T11:21:52.052Z,8.99
2023-02-20T11:24:27.781Z,9.00
2023-02-20T11:27:03.849Z,9.07
2023-02-20T11:29:38.263Z,9.14
2023-02-20T11:32:38.048Z,9.12
2023-02-20T11:35:20.382Z,9.03
2023-02-20T11:37:55.528Z,8.87
2023-02-20T11:40:29.006Z,8.83
2023-02-20T11:42:57.568Z,8.89
2023-02-20T11:45:27.851Z,8.90
2023-02-20T11:48:12.363Z,8.86
2023-02-20T11:50:42.888Z,8.92
2023-02-20T11:53:20.692Z,8.91
2023-02-20T11:55:59.744Z,8.87
2023-02-20T11:58:29.426Z,8.92
2023-02-20T12:00:57.772Z,8.91
2023-02-20T12:03:29.437Z,8.95
2023-02-20T12:05:59.062Z,8.95
2023-02-20T12:08:41.677Z,8.92
2023-02-20T12:11:13.373Z,8.92
2023-02-20T12:13:44.099Z,9.00
2023-02-20T12:16:31.129Z,8.96
2023-02-20T12:19:10.129Z,8.94
2023-02-20T12:21:54.624Z,8.91
2023-02-20T12:24:38.131Z,8.97
2023-02-20T12:27:19.791Z,8.91
2023-02-20T12:29:55.524Z,8.90
2023-02-20T12:32:33.675Z,8.91
2023-02-20T12:35:19.982Z,8.98
2023-02-20T12:37:56.408Z,8.93
2023-02-20T12:40:37.960Z,8.87
2023-02-20T12:43:19.793Z,8.86
2023-02-20T12:45:54.157Z,8.82
2023-02-20T12:48:34.474Z,8.86
2023-02-20T12:51:18.600Z,8.91
2023-02-20T12:54:03.735Z,8.98
2023-02-20T12:56:43.542Z,8.98
2023-02-20T12:59:26.710Z,9.05
2023-02-20T13:01:56.586Z,9.05
2023-02-20T13:04:31.785Z,9.07
2023-02-20T13:07:06.968Z,9.15
2023-02-20T13:09:37.889Z,9.13
2023-02-20T13:12:12.788Z,9.15
2023-02-20T13:14:56.985Z,9.12
2023-02-20T13:17:33.142Z,9.11
2023-02-20T13:20:11.996Z,9.02
2023-02-20T13:22:41.492Z,9.06
2023-02-20T13:25:41.912Z,8.99
2023-02-20T13:28:26.847Z,8.97
2023-02-20T13:31:09.693Z,9.04
2023-02-20T13:33:38.962Z,9.08
2023-02-20T13:36:17.518Z,9.03
2023-02-20T13:39:20.373Z,8.98
2023-02-20T13:42:02.399Z,9.04
2023-02-20T13:44:42.396Z,9.00
2023-02-20T13:47:36.302Z,8.88
2023-02-20T13:50:20.006Z,8.88
2023-02-20T13:52:49.272Z,8.86
2023-02-20T13:55:23.211Z,8.95
2023-02-20T13:57:54.892Z,8.90
2023-02-20T14:00:29.246Z,8.85
2023-02-20T14:02:58.023Z,8.89
2023-02-20T14:05:29.357Z,8.93
2023-02-20T14:07:57.960Z,8.86
2023-02-20T14:10:29.963Z,8.79
2023-02-20T14:13:03.474Z,8.73
2023-02-20T14:15:34.842Z,8.58
2023-02-20T14:18:03.042Z,8.63
2023-02-20T14:20:36.914Z,8.61
2023-02-20T14:23:22.040Z,8.48
2023-02-20T14:26:00.759Z,8.48
2023-02-20T14:28:46.860Z,8.42
2023-02-20T14:31:25.332Z,8.51
2023-02-20T14:33:58.284Z,8.43
2023-02-20T14:36:44.900Z,8.42
2023-02-20T14:39:28.892Z,8.40
2023-02-20T14:41:59.997Z,8.37
2023-02-20T14:44:30.476Z,8.38
2023-02-20T14:47:07.030Z,8.36
2023-02-20T14:49:35.493Z,8.50
2023-02-20T14:52:16.100Z,8.48
2023-02-20T14:54:45.645Z,8.56
2023-02-20T14:57:15.366Z,8.55
2023-02-20T14:59:44.917Z,8.59
2023-02-20T15:02:32.749Z,8.53
2023-02-20T15:05:05.639Z,8.65
2023-02-20T15:07:34.512Z,8.63
2023-02-20T15:10:05.817Z,8.67
2023-02-20T15:12:37.119Z,8.73
2023-02-20T15:15:12.925Z,8.66
2023-02-20T15:17:42.294Z,8.68
2023-02-20T15:20:34.960Z,8.67
2023-02-20T15:23:15.604Z,8.65
2023-02-20T15:25:45.096Z,8.70
2023-02-20T15:28:24.706Z,8.65
2023-02-20T15:31:06.865Z,8.69
2023-02-20T15:33:37.201Z,8.69
2023-02-20T15:36:06.846Z,8.64
2023-02-20T15:38:38.549Z,8.65
2023-02-20T15:41:07.096Z,8.74
2023-02-20T15:43:45.964Z,8.74
2023-02-20T15:46:17.595Z,8.75
2023-02-20T15:48:45.913Z,8.73
2023-02-20T15:51:18.870Z,8.79
2023-02-20T15:53:47.984Z,8.81
2023-02-20T15:56:16.858Z,8.79
2023-02-20T15:58:47.285Z,8.74
2023-02-20T16:01:17.256Z,8.74
2023-02-20T16:03:52.312Z,8.79
2023-02-20T16:06:23.032Z,8.78
2023-02-20T16:08:52.316Z,8.69
2023-02-20T16:11:23.640Z,8.69
2023-02-20T16:13:55.966Z,8.71
2023-02-20T16:16:33.725Z,8.78
2023-02-20T16:19:02.310Z,8.74
2023-02-20T16:21:30.607Z,8.73
2023-02-20T16:23:58.863Z,8.70
2023-02-20T16:26:29.844Z,8.63
2023-02-20T16:29:00.370Z,8.60
2023-02-20T16:32:22.413Z,8.60
2023-02-20T16:34:56.115Z,8.54
2023-02-20T16:37:25.085Z,8.63
2023-02-20T16:39:53.463Z,8.57
2023-02-20T16:42:29.281Z,8.53
2023-02-20T16:44:58.844Z,8.50
2023-02-20T16:47:31.926Z,8.51
2023-02-20T16:50:04.703Z,8.47
2023-02-20T16:52:40.992Z,8.48
2023-02-20T16:55:22.610Z,8.37
2023-02-20T16:57:51.244Z,8.41
2023-02-20T17:00:21.903Z,8.37
2023-02-20T17:02:51.603Z,8.38
2023-02-20T17:05:21.099Z,8.41
2023-02-20T17:07:49.403Z,8.37
2023-02-20T17:10:17.864Z,8.34
2023-02-20T17:12:46.051Z,8.36
2023-02-20T17:15:16.315Z,8.31
2023-02-20T17:17:44.625Z,8.34
2023-02-20T17:20:19.088Z,8.30
2023-02-20T17:23:02.661Z,8.27
2023-02-20T17:25:37.771Z,8.25
2023-02-20T17:28:07.591Z,8.26
2023-02-20T17:30:36.082Z,8.32
2023-02-20T17:33:04.300Z,8.33
2023-02-20T17:35:33.844Z,8.28
2023-02-20T17:38:02.012Z,8.33
2023-02-20T17:40:30.150Z,8.27
2023-02-20T17:42:58.324Z,8.25
2023-02-20T17:45:26.502Z,8.22
2023-02-20T17:47:54.650Z,8.19
2023-02-20T17:50:22.863Z,8.16
2023-02-20T17:52:55.286Z,8.20
2023-02-20T17:55:26.025Z,8.12
2023-02-20T17:57:54.365Z,8.13
2023-02-20T18:00:28.829Z,8.15
2023-02-20T18:02:57.247Z,8.13
2023-02-20T18:05:25.380Z,8.23
2023-02-20T18:07:54.875Z,8.20
2023-02-20T18:10:23.334Z,8.13
2023-02-20T18:13:03.277Z,8.27
2023-02-20T18:15:32.043Z,8.26
2023-02-20T18:18:00.504Z,8.28
2023-02-20T18:20:28.729Z,8.32
2023-02-20T18:22:58.965Z,8.33
2023-02-20T18:25:39.543Z,8.27
2023-02-20T18:28:10.086Z,8.27
2023-02-20T18:30:39.262Z,8.30
2023-02-20T18:33:07.479Z,8.33
2023-02-20T18:35:36.138Z,8.33
2023-02-20T18:38:06.053Z,8.27
2023-02-20T18:40:34.269Z,8.30
2023-02-20T18:43:02.432Z,8.35
2023-02-20T18:45:30.625Z,8.35
2023-02-20T18:47:58.829Z,8.43
2023-02-20T18:50:26.993Z,8.39
2023-02-20T18:52:55.148Z,8.40
2023-02-20T18:55:24.837Z,8.40
2023-02-20T18:57:54.242Z,8.38
2023-02-20T19:00:24.968Z,8.33
2023-02-20T19:02:55.445Z,8.31
2023-02-20T19:05:25.507Z,8.33
2023-02-20T19:07:53.750Z,8.38
2023-02-20T19:10:24.299Z,8.30
2023-02-20T19:12:55.303Z,8.35
2023-02-20T19:15:24.962Z,8.29
2023-02-20T19:17:54.641Z,8.34
2023-02-20T19:20:28.266Z,8.27
2023-02-20T19:22:58.409Z,8.25
2023-02-20T19:25:26.730Z,8.32
2023-02-20T19:27:56.636Z,8.26
2023-02-20T19:30:25.065Z,8.30
2023-02-20T19:32:53.357Z,8.34
2023-02-20T19:35:21.562Z,8.29
2023-02-20T19:37:49.735Z,8.31
2023-02-20T19:40:18.108Z,8.29
2023-02-20T19:42:46.271Z,8.29
2023-02-20T19:45:15.763Z,8.32
2023-02-20T19:47:43.961Z,8.30
2023-02-20T19:50:12.605Z,8.31
2023-02-20T19:52:42.186Z,8.30
2023-02-20T19:55:11.815Z,8.31
2023-02-20T19:57:39.972Z,8.29
2023-02-20T20:00:10.632Z,8.30
2023-02-20T20:02:41.790Z,8.33
2023-02-20T20:05:11.058Z,8.38
2023-02-20T20:07:39.320Z,8.33
2023-02-20T20:10:08.796Z,8.37
2023-02-20T20:12:50.371Z,8.40
2023-02-20T20:15:20.627Z,8.33
2023-02-20T20:17:52.205Z,8.43
2023-02-20T20:20:22.320Z,8.44
2023-02-20T20:22:51.528Z,8.44
2023-02-20T20:25:20.927Z,8.49
2023-02-20T20:27:51.114Z,8.46
2023-02-20T20:30:22.410Z,8.47
2023-02-20T20:32:52.365Z,8.48
2023-02-20T20:35:23.592Z,8.49
2023-02-20T20:37:53.538Z,8.55
2023-02-20T20:40:22.934Z,8.61
2023-02-20T20:42:51.293Z,8.59
2023-02-20T20:45:20.372Z,8.62
2023-02-20T20:47:48.996Z,8.55
2023-02-20T20:50:21.066Z,8.60
2023-02-20T20:52:49.878Z,8.65
2023-02-20T20:55:18.364Z,8.61
2023-02-20T20:57:46.515Z,8.58
2023-02-20T21:00:21.783Z,8.66
2023-02-20T21:02:50.123Z,8.60
2023-02-20T21:05:21.672Z,8.57
2023-02-20T21:07:49.833Z,8.67
2023-02-20T21:10:19.191Z,8.62
2023-02-20T21:12:47.510Z,8.69
2023-02-20T21:15:17.365Z,8.71
2023-02-20T21:17:45.563Z,8.75
2023-02-20T21:20:15.604Z,8.73
2023-02-20T21:22:45.321Z,8.74
2023-02-20T21:25:13.889Z,8.79
2023-02-20T21:27:42.027Z,8.74
2023-02-20T21:30:11.316Z,8.71
2023-02-20T21:32:39.511Z,8.78
2023-02-20T21:35:08.497Z,8.77
2023-02-20T21:37:36.748Z,8.80
2023-02-20T21:40:06.921Z,8.82
2023-02-20T21:42:49.119Z,8.86
2023-02-20T21:45:17.528Z,8.85
2023-02-20T21:47:45.802Z,8.86
2023-02-20T21:50:15.047Z,8.81
2023-02-20T21:52:43.266Z,8.80
2023-02-20T21:55:15.402Z,8.82
2023-02-20T21:57:43.646Z,8.87
2023-02-20T22:00:12.874Z,8.85
2023-02-20T22:02:40.199Z,8.87
2023-02-20T22:05:08.560Z,8.81
2023-02-20T22:07:54.386Z,8.82
2023-02-20T22:10:42.283Z,8.81
2023-02-20T22:13:29.222Z,8.81
2023-02-20T22:16:15.395Z,8.84
2023-02-20T22:19:01.221Z,8.77
2023-02-20T22:21:46.764Z,8.81
2023-02-20T22:24:39.570Z,8.84
2023-02-20T22:27:28.311Z,8.85
2023-02-20T22:30:14.297Z,8.79
2023-02-20T22:33:00.260Z,8.86
2023-02-20T22:35:46.325Z,8.81
2023-02-20T22:38:32.183Z,8.81
2023-02-20T22:41:17.969Z,8.73
2023-02-20T22:44:05.087Z,8.74
2023-02-20T22:46:51.106Z,8.73
2023-02-20T22:49:36.894Z,8.68
2023-02-20T22:52:22.557Z,8.69
2023-02-20T22:55:08.335Z,8.61
2023-02-20T22:57:54.202Z,8.66
2023-02-20T23:00:42.560Z,8.58
2023-02-20T23:03:29.521Z,8.66
2023-02-20T23:06:18.415Z,8.58
2023-02-20T23:09:06.311Z,8.52
2023-02-20T23:11:53.222Z,8.49
2023-02-20T23:14:39.333Z,8.57
2023-02-20T23:17:35.634Z,8.48
2023-02-20T23:20:24.928Z,8.52
2023-02-20T23:23:11.167Z,8.41
2023-02-20T23:25:56.854Z,8.33
2023-02-20T23:28:42.674Z,8.34
2023-02-20T23:31:28.458Z,8.27
2023-02-20T23:34:15.468Z,8.31
2023-02-20T23:37:04.947Z,8.24
2023-02-20T23:39:51.268Z,8.22
2023-02-20T23:42:37.696Z,8.21
2023-02-20T23:45:25.982Z,8.23
2023-02-20T23:48:11.872Z,8.25
2023-02-20T23:50:59.157Z,8.26
2023-02-20T23:53:45.220Z,8.17
2023-02-20T23:56:31.403Z,8.21
2023-02-20T23:59:17.416Z,8.19
